createdAt,value
2022-08-09T00:02:18.197Z,6.80
2022-08-09T00:07:13.446Z,9.05
2022-08-09T00:12:08.078Z,7.75
2022-08-09T00:17:02.365Z,6.57
2022-08-09T00:21:57.208Z,5.78
2022-08-09T00:26:51.460Z,5.55
2022-08-09T00:31:59.042Z,7.68
2022-08-09T00:36:55.683Z,7.75
2022-08-09T00:44:12.957Z,9.27
2022-08-09T00:47:05.996Z,10.98
2022-08-09T00:52:05.170Z,11.10
2022-08-09T00:57:00.948Z,11.40
2022-08-09T01:01:55.615Z,11.57
2022-08-09T01:07:03.563Z,10.95
2022-08-09T01:12:21.241Z,11.38
2022-08-09T01:17:26.202Z,13.23
2022-08-09T01:22:51.267Z,11.80
2022-08-09T01:27:52.821Z,13.68
2022-08-09T01:32:47.357Z,11.65
2022-08-09T01:38:09.470Z,9.93
2022-08-09T01:42:56.992Z,10.60
2022-08-09T01:47:51.641Z,11.45
2022-08-09T01:52:45.427Z,9.88
2022-08-09T01:57:46.175Z,10.63
2022-08-09T02:02:50.868Z,12.32
2022-08-09T02:08:40.185Z,10.18
2022-08-09T02:13:12.925Z,12.02
2022-08-09T02:18:10.174Z,9.57
2022-08-09T02:23:21.440Z,12.27
2022-08-09T02:33:16.864Z,15.45
2022-08-09T02:38:11.828Z,12.68
2022-08-09T02:43:22.233Z,12.35
2022-08-09T02:48:30.481Z,10.68
2022-08-09T02:53:31.960Z,11.93
2022-08-09T02:58:37.438Z,11.90
2022-08-09T03:03:37.303Z,11.90
2022-08-09T03:08:47.528Z,17.60
2022-08-09T03:13:43.642Z,12.10
2022-08-09T03:18:50.599Z,10.48
2022-08-09T03:24:03.643Z,11.38
2022-08-09T03:28:59.698Z,12.85
2022-08-09T03:33:56.507Z,14.95
2022-08-09T03:38:52.225Z,14.43
2022-08-09T03:44:02.964Z,11.75
2022-08-09T03:49:03.914Z,14.32
2022-08-09T03:54:00.481Z,12.38
2022-08-09T03:58:56.319Z,16.38
2022-08-09T04:04:02.103Z,13.18
2022-08-09T04:08:57.050Z,19.17
2022-08-09T04:14:53.892Z,12.30
2022-08-09T04:19:03.643Z,20.10
2022-08-09T04:24:06.962Z,10.73
2022-08-09T04:29:05.205Z,11.85
2022-08-09T04:34:03.706Z,10.98
2022-08-09T04:39:18.586Z,11.68
2022-08-09T04:44:14.721Z,15.35
2022-08-09T04:49:08.898Z,12.13
2022-08-09T04:54:08.722Z,14.88
2022-08-09T04:59:07.874Z,12.73
2022-08-09T05:04:09.856Z,11.93
2022-08-09T05:09:04.793Z,13.25
2022-08-09T05:13:58.866Z,13.43
2022-08-09T05:18:57.786Z,13.20
2022-08-09T05:24:00.239Z,13.02
2022-08-09T05:28:56.953Z,14.47
2022-08-09T05:33:51.028Z,13.32
2022-08-09T05:38:46.138Z,20.92
2022-08-09T05:43:44.964Z,14.10
2022-08-09T05:48:45.495Z,13.95
2022-08-09T05:54:05.445Z,18.40
2022-08-09T05:58:59.630Z,13.43
2022-08-09T06:03:58.095Z,18.15
2022-08-09T06:08:52.654Z,13.32
2022-08-09T06:13:47.583Z,13.45
2022-08-09T06:18:43.265Z,12.93
2022-08-09T06:23:55.485Z,13.27
2022-08-09T06:28:59.655Z,12.65
2022-08-09T06:33:59.073Z,20.55
2022-08-09T06:38:54.105Z,14.48
2022-08-09T06:43:52.988Z,17.33
2022-08-09T06:48:46.869Z,15.20
2022-08-09T06:53:44.275Z,12.00
2022-08-09T07:00:47.100Z,15.73
2022-08-09T07:03:54.766Z,19.45
2022-08-09T07:08:51.277Z,18.35
2022-08-09T07:14:05.733Z,11.45
2022-08-09T07:18:57.393Z,18.42
2022-08-09T07:23:58.136Z,12.80
2022-08-09T07:29:09.092Z,13.52
2022-08-09T07:34:06.073Z,14.13
2022-08-09T07:39:02.479Z,14.88
2022-08-09T07:43:56.784Z,16.27
2022-08-09T07:48:59.287Z,18.27
2022-08-09T07:54:05.816Z,15.35
2022-08-09T07:59:01.702Z,15.88
2022-08-09T08:03:55.464Z,14.73
2022-08-09T08:09:03.157Z,14.48
2022-08-09T08:14:04.850Z,16.02
2022-08-09T08:19:04.358Z,13.75
2022-08-09T08:24:11.430Z,13.48
2022-08-09T08:29:08.551Z,12.82
2022-08-09T08:34:03.747Z,14.02
2022-08-09T08:39:06.645Z,13.65
2022-08-09T08:44:10.414Z,19.30
2022-08-09T08:49:12.767Z,13.88
2022-08-09T08:54:20.612Z,15.63
2022-08-09T08:59:28.044Z,11.93
2022-08-09T09:04:47.770Z,13.20
2022-08-09T09:10:01.676Z,31.90
2022-08-09T09:15:00.309Z,12.88
2022-08-09T09:19:55.203Z,5.05
2022-08-09T09:24:55.529Z,8.50
2022-08-09T09:30:19.034Z,8.98
2022-08-09T09:35:29.405Z,5.97
2022-08-09T09:40:46.577Z,6.55
2022-08-09T09:46:39.567Z,8.32
2022-08-09T09:51:07.068Z,5.97
2022-08-09T10:01:01.174Z,7.10
2022-08-09T10:06:04.134Z,7.45
2022-08-09T10:10:59.641Z,7.10
2022-08-09T10:16:55.734Z,5.72
2022-08-09T10:21:13.411Z,7.93
2022-08-09T10:26:10.897Z,6.43
2022-08-09T10:36:21.417Z,6.28
2022-08-09T10:41:17.789Z,10.20
2022-08-09T10:46:52.533Z,6.97
2022-08-09T10:52:07.421Z,4.88
2022-08-09T10:57:14.653Z,7.55
2022-08-09T11:03:10.915Z,7.05
2022-08-09T11:07:58.005Z,4.80
2022-08-09T11:13:49.938Z,6.25
2022-08-09T11:18:51.637Z,5.63
2022-08-09T11:23:59.810Z,5.07
2022-08-09T11:28:56.351Z,5.50
2022-08-09T11:33:54.363Z,6.28
2022-08-09T11:39:01.502Z,6.55
2022-08-09T11:43:55.752Z,5.25
2022-08-09T11:48:54.767Z,5.55
2022-08-09T11:54:13.912Z,6.33
2022-08-09T11:59:13.427Z,4.80
2022-08-09T12:04:20.775Z,4.75
2022-08-09T12:09:33.988Z,6.18
2022-08-09T12:14:36.946Z,5.97
2022-08-09T12:19:34.785Z,5.70
2022-08-09T12:29:44.751Z,7.28
2022-08-09T12:34:45.815Z,8.80
2022-08-09T12:39:39.966Z,7.13
2022-08-09T12:44:37.210Z,5.25
2022-08-09T12:49:34.137Z,8.20
2022-08-09T12:54:29.120Z,4.78
2022-08-09T12:59:40.099Z,6.68
2022-08-09T13:04:39.850Z,7.88
2022-08-09T13:09:38.281Z,4.85
2022-08-09T13:14:41.857Z,5.25
2022-08-09T13:20:09.334Z,4.88
2022-08-09T13:24:55.571Z,6.07
2022-08-09T13:30:03.850Z,7.40
2022-08-09T13:35:07.859Z,9.32
2022-08-09T13:41:46.791Z,8.18
2022-08-09T13:45:32.220Z,5.45
2022-08-09T13:50:38.081Z,7.22
2022-08-09T13:55:33.752Z,3.53
2022-08-09T14:00:29.695Z,6.20
2022-08-09T14:05:58.314Z,7.60
2022-08-09T14:10:50.395Z,4.55
2022-08-09T14:16:09.554Z,4.82
2022-08-09T14:21:02.090Z,5.63
2022-08-09T14:26:01.330Z,4.22
2022-08-09T14:30:56.317Z,3.70
2022-08-09T14:35:53.491Z,3.83
2022-08-09T14:41:01.312Z,6.18
2022-08-09T14:46:54.265Z,8.45
2022-08-09T14:51:09.722Z,5.22
2022-08-09T14:56:18.648Z,3.53
2022-08-09T15:01:20.622Z,5.88
2022-08-09T15:06:15.447Z,7.03
2022-08-09T15:11:09.048Z,3.05
2022-08-09T15:16:08.027Z,6.25
2022-08-09T15:21:55.136Z,2.95
2022-08-09T15:26:30.876Z,5.38
2022-08-09T15:31:41.698Z,5.40
2022-08-09T15:36:36.118Z,4.32
2022-08-09T15:41:31.539Z,3.90
2022-08-09T15:46:33.084Z,4.07
2022-08-09T15:52:03.980Z,3.22
2022-08-09T15:56:41.528Z,5.50
2022-08-09T16:01:39.190Z,4.28
2022-08-09T16:06:34.674Z,5.53
2022-08-09T16:11:32.920Z,8.52
2022-08-09T16:16:32.184Z,5.30
2022-08-09T16:21:26.574Z,5.85
2022-08-09T16:26:34.823Z,4.50
2022-08-09T16:32:10.490Z,4.13
2022-08-09T16:36:43.100Z,10.00
2022-08-09T16:42:02.722Z,3.97
2022-08-09T16:46:55.535Z,3.97
2022-08-09T16:51:56.094Z,6.57
2022-08-09T16:56:50.227Z,4.72
2022-08-09T17:01:51.158Z,5.07
2022-08-09T17:07:09.217Z,8.93
2022-08-09T17:12:02.231Z,6.38
2022-08-09T17:17:02.674Z,7.40
2022-08-09T17:21:57.432Z,6.00
2022-08-09T17:26:52.025Z,6.78
2022-08-09T17:31:49.218Z,7.70
2022-08-09T17:36:53.346Z,6.97
2022-08-09T17:41:52.577Z,4.70
2022-08-09T17:46:55.321Z,9.00
2022-08-09T17:51:52.981Z,6.32
2022-08-09T17:56:47.446Z,6.75
2022-08-09T18:02:06.213Z,6.00
2022-08-09T18:06:55.860Z,5.13
2022-08-09T18:12:15.105Z,6.10
2022-08-09T18:17:06.871Z,7.07
2022-08-09T18:22:03.394Z,5.03
2022-08-09T18:26:57.500Z,8.52
2022-08-09T18:31:55.696Z,7.13
2022-08-09T18:36:50.260Z,5.15
2022-08-09T18:41:52.717Z,7.15
2022-08-09T18:47:07.516Z,12.90
2022-08-09T18:52:03.360Z,30.73
2022-08-09T18:57:05.322Z,13.65
2022-08-09T19:02:03.045Z,6.25
2022-08-09T19:06:57.809Z,7.50
2022-08-09T19:11:54.845Z,4.50
2022-08-09T19:16:50.178Z,8.02
2022-08-09T19:21:47.890Z,9.65
2022-08-09T19:26:48.927Z,8.50
2022-08-09T19:31:46.246Z,7.70
2022-08-09T19:36:39.532Z,8.48
2022-08-09T19:41:36.663Z,5.95
2022-08-09T19:46:50.933Z,8.63
2022-08-09T19:51:55.197Z,5.80
2022-08-09T19:56:50.304Z,6.40
2022-08-09T20:01:52.395Z,6.53
2022-08-09T20:06:57.375Z,5.10
2022-08-09T20:11:51.864Z,6.50
2022-08-09T20:16:53.477Z,6.07
2022-08-09T20:21:56.826Z,5.93
2022-08-09T20:26:51.927Z,9.75
2022-08-09T20:32:30.971Z,9.15
2022-08-09T20:36:59.701Z,6.50
2022-08-09T20:41:53.787Z,7.53
2022-08-09T20:46:49.590Z,7.90
2022-08-09T20:51:44.239Z,6.28
2022-08-09T20:56:37.395Z,5.65
2022-08-09T21:01:50.451Z,6.57
2022-08-09T21:17:02.132Z,9.60
2022-08-09T21:22:36.333Z,10.85
2022-08-09T21:27:52.043Z,11.55
2022-08-09T21:32:47.288Z,7.68
2022-08-09T21:38:00.620Z,7.25
2022-08-09T21:42:54.581Z,9.25
2022-08-09T21:47:51.114Z,8.30
2022-08-09T21:52:47.002Z,8.93
2022-08-09T21:57:59.071Z,9.60
2022-08-09T22:02:59.148Z,9.25
2022-08-09T22:07:56.755Z,7.47
2022-08-09T22:12:50.151Z,13.05
2022-08-09T22:17:46.201Z,7.57
2022-08-09T22:22:41.492Z,6.60
2022-08-09T22:27:35.315Z,6.85
2022-08-09T22:32:31.734Z,7.38
2022-08-09T22:37:25.677Z,8.45
2022-08-09T22:42:24.213Z,9.55
2022-08-09T22:48:10.151Z,8.32
2022-08-09T22:52:32.922Z,8.27
2022-08-09T22:57:35.686Z,11.95
2022-08-09T23:02:40.887Z,9.18
2022-08-09T23:08:23.392Z,6.85
2022-08-09T23:13:13.012Z,8.90
2022-08-09T23:18:07.253Z,8.85
2022-08-09T23:23:01.112Z,11.50
2022-08-09T23:28:00.544Z,11.65
2022-08-09T23:33:09.115Z,9.00
2022-08-09T23:38:02.323Z,6.88
2022-08-09T23:42:56.438Z,8.50
2022-08-09T23:47:48.302Z,8.73
2022-08-09T23:52:41.914Z,11.85
2022-08-09T23:57:46.865Z,7.45
